createdAt,value
2022-08-26T00:02:16.020Z,49.40
2022-08-26T00:04:46.583Z,50.10
2022-08-26T00:07:13.312Z,50.60
2022-08-26T00:09:40.525Z,51.40
2022-08-26T00:12:07.885Z,52.00
2022-08-26T00:14:35.696Z,52.50
2022-08-26T00:17:02.477Z,52.90
2022-08-26T00:19:29.351Z,53.00
2022-08-26T00:21:56.289Z,53.10
2022-08-26T00:24:23.820Z,53.30
2022-08-26T00:26:51.578Z,53.50
2022-08-26T00:29:18.881Z,53.70
2022-08-26T00:31:48.145Z,54.00
2022-08-26T00:34:16.634Z,54.40
2022-08-26T00:36:46.057Z,54.70
2022-08-26T00:39:12.816Z,55.10
2022-08-26T00:41:40.587Z,55.50
2022-08-26T00:44:08.222Z,56.10
2022-08-26T00:46:38.807Z,56.50
2022-08-26T00:49:36.775Z,56.90
2022-08-26T00:52:04.758Z,56.90
2022-08-26T00:54:34.523Z,57.10
2022-08-26T00:57:04.936Z,57.50
2022-08-26T00:59:36.021Z,57.70
2022-08-26T01:02:06.021Z,57.70
2022-08-26T01:04:35.089Z,58.00
2022-08-26T01:07:04.004Z,58.20
2022-08-26T01:09:31.768Z,58.30
2022-08-26T01:11:59.687Z,58.40
2022-08-26T01:14:29.470Z,58.80
2022-08-26T01:16:56.156Z,59.20
2022-08-26T01:19:27.139Z,59.60
2022-08-26T01:22:05.382Z,60.10
2022-08-26T01:24:32.293Z,60.50
2022-08-26T01:27:03.412Z,60.60
2022-08-26T01:29:32.300Z,60.80
2022-08-26T01:31:59.687Z,61.00
2022-08-26T01:34:29.257Z,61.20
2022-08-26T01:37:02.887Z,61.50
2022-08-26T01:39:31.096Z,61.70
2022-08-26T01:41:59.028Z,62.00
2022-08-26T01:44:32.489Z,62.20
2022-08-26T01:46:59.998Z,62.40
2022-08-26T01:49:27.706Z,62.60
2022-08-26T01:51:55.987Z,62.60
2022-08-26T01:54:23.212Z,62.50
2022-08-26T01:56:50.522Z,62.30
2022-08-26T01:59:19.114Z,62.30
2022-08-26T02:01:46.823Z,62.70
2022-08-26T02:04:13.667Z,63.00
2022-08-26T02:06:40.919Z,63.10
2022-08-26T02:09:07.950Z,63.40
2022-08-26T02:11:34.997Z,63.80
2022-08-26T02:16:36.626Z,64.50
2022-08-26T02:19:04.601Z,64.80
2022-08-26T02:21:33.867Z,65.00
2022-08-26T02:24:08.572Z,64.90
2022-08-26T02:26:35.721Z,64.70
2022-08-26T02:29:07.556Z,64.60
2022-08-26T02:31:34.478Z,64.50
2022-08-26T02:34:12.938Z,64.80
2022-08-26T02:36:42.030Z,65.00
2022-08-26T02:39:09.021Z,65.20
2022-08-26T02:41:35.857Z,65.30
2022-08-26T02:44:11.730Z,65.20
2022-08-26T02:46:39.238Z,65.00
2022-08-26T02:49:06.956Z,64.70
2022-08-26T02:51:33.777Z,64.30
2022-08-26T02:54:00.553Z,64.10
2022-08-26T02:56:28.329Z,64.10
2022-08-26T02:58:55.584Z,64.10
2022-08-26T03:01:27.108Z,63.90
2022-08-26T03:03:54.350Z,63.90
2022-08-26T03:06:21.108Z,63.70
2022-08-26T03:08:48.315Z,63.70
2022-08-26T03:11:15.189Z,63.70
2022-08-26T03:13:42.121Z,63.80
2022-08-26T03:16:09.024Z,64.00
2022-08-26T03:18:36.177Z,64.10
2022-08-26T03:21:06.523Z,64.20
2022-08-26T03:23:34.027Z,64.20
2022-08-26T03:26:01.476Z,64.10
2022-08-26T03:28:28.292Z,64.10
2022-08-26T03:30:55.593Z,64.40
2022-08-26T03:33:22.390Z,64.40
2022-08-26T03:35:50.781Z,64.30
2022-08-26T03:38:18.622Z,64.10
2022-08-26T03:40:45.493Z,64.10
2022-08-26T03:43:12.690Z,64.10
2022-08-26T03:45:41.029Z,64.20
2022-08-26T03:48:09.895Z,64.20
2022-08-26T03:50:37.001Z,64.10
2022-08-26T03:53:03.851Z,64.00
2022-08-26T03:55:32.471Z,63.90
2022-08-26T03:58:00.762Z,63.70
2022-08-26T04:00:27.854Z,63.60
2022-08-26T04:02:54.607Z,63.60
2022-08-26T04:05:22.767Z,63.70
2022-08-26T04:07:49.921Z,63.50
2022-08-26T04:10:20.099Z,63.40
2022-08-26T04:12:47.185Z,63.40
2022-08-26T04:15:15.917Z,63.50
2022-08-26T04:17:44.619Z,63.40
2022-08-26T04:20:14.003Z,63.40
2022-08-26T04:22:43.103Z,63.50
2022-08-26T04:25:10.341Z,63.60
2022-08-26T04:27:37.215Z,63.80
2022-08-26T04:30:04.785Z,64.10
2022-08-26T04:32:31.531Z,64.10
2022-08-26T04:34:58.297Z,64.40
2022-08-26T04:37:27.498Z,64.40
2022-08-26T04:39:54.222Z,64.10
2022-08-26T04:42:26.100Z,63.80
2022-08-26T04:44:53.222Z,63.60
2022-08-26T04:47:19.976Z,63.70
2022-08-26T04:49:46.766Z,63.90
2022-08-26T04:52:13.627Z,64.00
2022-08-26T04:54:41.902Z,64.10
2022-08-26T04:57:08.856Z,64.10
2022-08-26T04:59:39.106Z,64.00
2022-08-26T05:02:06.933Z,64.00
2022-08-26T05:04:34.032Z,63.80
2022-08-26T05:07:02.742Z,63.70
2022-08-26T05:09:29.892Z,63.70
2022-08-26T05:11:57.321Z,63.70
2022-08-26T05:14:24.191Z,63.70
2022-08-26T05:16:51.356Z,63.80
2022-08-26T05:19:19.148Z,63.80
2022-08-26T05:21:47.110Z,63.70
2022-08-26T05:24:14.380Z,63.60
2022-08-26T05:26:41.227Z,63.60
2022-08-26T05:29:07.953Z,63.70
2022-08-26T05:31:34.882Z,63.80
2022-08-26T05:34:03.602Z,63.90
2022-08-26T05:36:31.648Z,63.80
2022-08-26T05:38:58.505Z,63.80
2022-08-26T05:41:34.497Z,63.80
2022-08-26T05:44:05.086Z,63.80
2022-08-26T05:46:31.877Z,63.70
2022-08-26T05:48:58.700Z,63.70
2022-08-26T05:51:26.268Z,63.60
2022-08-26T05:53:54.905Z,63.30
2022-08-26T05:56:26.111Z,63.20
2022-08-26T05:58:53.159Z,63.10
2022-08-26T06:01:21.639Z,62.80
2022-08-26T06:03:51.851Z,62.80
2022-08-26T06:06:20.770Z,62.70
2022-08-26T06:08:54.934Z,62.70
2022-08-26T06:11:25.881Z,62.60
2022-08-26T06:13:53.445Z,62.50
2022-08-26T06:16:21.371Z,62.50
2022-08-26T06:18:48.720Z,62.50
2022-08-26T06:21:17.088Z,62.40
2022-08-26T06:24:03.566Z,62.40
2022-08-26T06:26:30.816Z,62.20
2022-08-26T06:28:57.662Z,62.40
2022-08-26T06:31:25.290Z,62.50
2022-08-26T06:33:52.752Z,62.60
2022-08-26T06:36:20.962Z,62.40
2022-08-26T06:38:48.923Z,62.30
2022-08-26T06:41:16.082Z,62.20
2022-08-26T06:43:43.552Z,62.00
2022-08-26T06:46:11.826Z,62.00
2022-08-26T06:48:39.703Z,61.90
2022-08-26T06:51:09.034Z,62.00
2022-08-26T06:53:36.858Z,61.80
2022-08-26T06:56:04.887Z,61.70
2022-08-26T06:58:32.023Z,61.50
2022-08-26T07:01:03.059Z,61.80
2022-08-26T07:03:39.617Z,61.70
2022-08-26T07:06:06.845Z,61.80
2022-08-26T07:08:34.132Z,61.90
2022-08-26T07:11:04.328Z,61.80
2022-08-26T07:13:31.773Z,61.80
2022-08-26T07:16:03.200Z,61.70
2022-08-26T07:18:31.662Z,61.40
2022-08-26T07:21:02.348Z,61.40
2022-08-26T07:23:29.617Z,61.50
2022-08-26T07:25:56.413Z,61.60
2022-08-26T07:28:23.244Z,61.70
2022-08-26T07:30:50.159Z,61.60
2022-08-26T07:33:20.116Z,61.70
2022-08-26T07:35:47.077Z,61.70
2022-08-26T07:38:13.992Z,61.50
2022-08-26T07:40:41.068Z,61.50
2022-08-26T07:43:09.574Z,61.50
2022-08-26T07:45:36.965Z,61.50
2022-08-26T07:48:04.090Z,61.40
2022-08-26T07:50:49.432Z,61.20
2022-08-26T07:53:18.220Z,60.80
2022-08-26T07:55:46.632Z,60.70
2022-08-26T07:58:13.475Z,60.50
2022-08-26T08:00:40.341Z,60.30
2022-08-26T08:03:07.415Z,60.00
2022-08-26T08:05:34.681Z,59.80
2022-08-26T08:08:26.633Z,59.70
2022-08-26T08:10:49.243Z,59.80
2022-08-26T08:13:16.093Z,59.80
2022-08-26T08:15:43.761Z,59.80
2022-08-26T08:18:20.549Z,59.80
2022-08-26T08:21:04.724Z,59.60
2022-08-26T08:23:41.245Z,59.40
2022-08-26T08:26:09.251Z,59.20
2022-08-26T08:28:36.846Z,59.10
2022-08-26T08:31:09.495Z,59.00
2022-08-26T08:33:36.681Z,58.90
2022-08-26T08:36:05.871Z,58.90
2022-08-26T08:38:36.334Z,58.90
2022-08-26T08:41:04.231Z,58.70
2022-08-26T08:43:38.230Z,58.70
2022-08-26T08:46:07.187Z,58.70
2022-08-26T08:48:36.986Z,58.60
2022-08-26T08:51:14.055Z,58.60
2022-08-26T08:53:43.122Z,58.50
2022-08-26T08:56:28.945Z,58.40
2022-08-26T08:59:02.983Z,58.40
2022-08-26T09:01:30.071Z,58.50
2022-08-26T09:04:01.301Z,58.50
2022-08-26T09:06:28.326Z,58.50
2022-08-26T09:08:55.989Z,58.40
2022-08-26T09:11:23.366Z,58.30
2022-08-26T09:13:51.665Z,58.10
2022-08-26T09:16:34.593Z,57.90
2022-08-26T09:19:18.990Z,57.70
2022-08-26T09:21:46.176Z,57.50
2022-08-26T09:24:13.800Z,57.30
2022-08-26T09:26:43.619Z,57.30
2022-08-26T09:32:16.444Z,57.10
2022-08-26T09:35:12.402Z,57.10
2022-08-26T09:40:27.768Z,57.00
2022-08-26T09:43:13.522Z,56.90
2022-08-26T09:45:50.161Z,56.90
2022-08-26T09:48:26.512Z,56.90
2022-08-26T09:50:55.175Z,57.00
2022-08-26T09:53:30.356Z,56.80
2022-08-26T09:56:11.482Z,56.70
2022-08-26T09:58:39.767Z,56.70
2022-08-26T10:01:14.363Z,56.80
2022-08-26T10:03:42.624Z,56.40
2022-08-26T10:06:12.298Z,55.90
2022-08-26T10:08:44.097Z,55.90
2022-08-26T10:11:16.169Z,56.00
2022-08-26T10:13:45.572Z,55.90
2022-08-26T10:16:23.293Z,55.70
2022-08-26T10:19:10.326Z,55.50
2022-08-26T10:21:54.067Z,55.30
2022-08-26T10:24:28.292Z,54.90
2022-08-26T10:27:00.898Z,54.70
2022-08-26T10:29:48.167Z,54.60
2022-08-26T10:32:26.512Z,54.40
2022-08-26T10:34:54.713Z,54.50
2022-08-26T10:37:25.222Z,54.50
2022-08-26T10:39:59.347Z,54.50
2022-08-26T10:42:29.291Z,54.30
2022-08-26T10:45:03.268Z,54.40
2022-08-26T10:47:50.353Z,54.30
2022-08-26T10:50:18.181Z,53.80
2022-08-26T10:53:19.300Z,53.60
2022-08-26T10:56:18.679Z,53.30
2022-08-26T10:58:48.950Z,53.00
2022-08-26T11:01:43.658Z,52.90
2022-08-26T11:04:16.613Z,52.80
2022-08-26T11:06:46.667Z,52.20
2022-08-26T11:09:36.688Z,51.80
2022-08-26T11:12:10.119Z,51.60
2022-08-26T11:14:53.535Z,51.20
2022-08-26T11:17:58.047Z,51.00
2022-08-26T11:20:41.968Z,50.60
2022-08-26T11:23:24.187Z,50.50
2022-08-26T11:25:57.438Z,50.50
2022-08-26T11:28:35.453Z,50.40
2022-08-26T11:31:03.197Z,50.40
2022-08-26T11:33:43.997Z,50.40
2022-08-26T11:36:12.520Z,50.50
2022-08-26T11:38:42.966Z,50.60
2022-08-26T11:41:11.523Z,50.50
2022-08-26T11:43:39.467Z,50.50
2022-08-26T11:46:09.251Z,50.40
2022-08-26T11:48:37.850Z,50.30
2022-08-26T11:51:09.840Z,50.20
2022-08-26T11:53:41.159Z,50.30
2022-08-26T11:56:23.468Z,50.00
2022-08-26T11:58:54.731Z,49.60
2022-08-26T12:01:25.843Z,49.30
2022-08-26T12:03:53.123Z,49.00
2022-08-26T12:09:14.759Z,48.70
2022-08-26T12:11:41.910Z,48.80
2022-08-26T12:14:27.701Z,48.80
2022-08-26T12:16:54.802Z,49.00
2022-08-26T12:19:32.586Z,49.10
2022-08-26T12:22:18.906Z,49.00
2022-08-26T12:25:00.831Z,49.00
2022-08-26T12:27:31.866Z,49.00
2022-08-26T12:30:04.483Z,49.00
2022-08-26T12:32:35.585Z,49.00
2022-08-26T12:37:34.477Z,49.10
2022-08-26T12:40:23.014Z,49.20
2022-08-26T12:42:50.064Z,49.30
2022-08-26T12:45:27.053Z,49.50
2022-08-26T12:47:55.927Z,49.70
2022-08-26T12:50:22.651Z,50.00
2022-08-26T12:52:55.389Z,50.20
2022-08-26T12:55:28.595Z,50.30
2022-08-26T12:58:14.014Z,50.60
2022-08-26T13:00:42.605Z,50.70
2022-08-26T13:03:27.917Z,50.80
2022-08-26T13:06:07.731Z,50.60
2022-08-26T13:08:46.902Z,50.70
2022-08-26T13:11:13.720Z,50.80
2022-08-26T13:13:40.743Z,50.70
2022-08-26T13:16:07.854Z,50.80
2022-08-26T13:18:34.809Z,50.90
2022-08-26T13:21:07.705Z,50.80
2022-08-26T13:23:34.489Z,50.70
2022-08-26T13:26:01.815Z,50.70
2022-08-26T13:28:28.658Z,50.60
2022-08-26T13:30:55.604Z,50.70
2022-08-26T13:33:22.799Z,50.70
2022-08-26T13:35:49.723Z,50.70
2022-08-26T13:38:22.309Z,50.60
2022-08-26T13:41:00.798Z,50.60
2022-08-26T13:43:28.068Z,50.60
2022-08-26T13:45:54.885Z,50.70
2022-08-26T13:48:23.525Z,50.70
2022-08-26T13:50:50.718Z,51.30
2022-08-26T13:53:17.711Z,51.90
2022-08-26T13:55:44.498Z,52.40
2022-08-26T13:58:11.916Z,52.70
2022-08-26T14:00:39.712Z,53.20
2022-08-26T14:03:11.354Z,53.50
2022-08-26T14:05:40.156Z,53.90
2022-08-26T14:08:07.083Z,54.30
2022-08-26T14:10:34.342Z,54.60
2022-08-26T14:13:01.064Z,54.90
2022-08-26T14:15:27.917Z,55.00
2022-08-26T14:17:55.918Z,55.10
2022-08-26T14:20:29.586Z,55.20
2022-08-26T14:23:14.228Z,55.20
2022-08-26T14:25:41.750Z,55.20
2022-08-26T14:28:08.487Z,55.20
2022-08-26T14:30:35.514Z,55.10
2022-08-26T14:33:02.277Z,55.00
2022-08-26T14:35:30.594Z,54.90
2022-08-26T14:37:57.832Z,55.00
2022-08-26T14:40:27.549Z,55.10
2022-08-26T14:42:54.443Z,55.30
2022-08-26T14:45:22.969Z,55.30
2022-08-26T14:47:50.638Z,55.30
2022-08-26T14:50:19.446Z,55.10
2022-08-26T14:53:04.595Z,54.90
2022-08-26T14:55:33.515Z,54.60
2022-08-26T14:58:00.415Z,54.40
2022-08-26T15:00:28.065Z,54.10
2022-08-26T15:02:55.533Z,53.90
2022-08-26T15:05:22.833Z,53.90
2022-08-26T15:07:49.832Z,53.90
2022-08-26T15:10:16.913Z,53.90
2022-08-26T15:12:43.990Z,53.90
2022-08-26T15:15:11.655Z,54.00
2022-08-26T15:17:39.368Z,54.00
2022-08-26T15:20:08.665Z,54.00
2022-08-26T15:22:35.693Z,53.90
2022-08-26T15:25:02.596Z,53.80
2022-08-26T15:27:29.368Z,53.70
2022-08-26T15:29:56.151Z,53.70
2022-08-26T15:32:22.955Z,53.60
2022-08-26T15:34:49.941Z,53.60
2022-08-26T15:37:16.945Z,53.70
2022-08-26T15:39:44.158Z,53.60
2022-08-26T15:42:11.588Z,53.50
2022-08-26T15:44:42.324Z,53.40
2022-08-26T15:47:09.086Z,53.50
2022-08-26T15:49:35.856Z,53.60
2022-08-26T15:52:05.223Z,53.70
2022-08-26T15:54:35.662Z,53.70
2022-08-26T15:57:03.050Z,53.60
2022-08-26T15:59:32.723Z,53.60
2022-08-26T16:02:00.574Z,53.70
2022-08-26T16:04:27.562Z,53.70
2022-08-26T16:06:54.969Z,53.70
2022-08-26T16:09:24.225Z,53.70
2022-08-26T16:11:51.755Z,53.60
2022-08-26T16:14:18.550Z,53.50
2022-08-26T16:16:45.392Z,53.70
2022-08-26T16:19:12.225Z,53.80
2022-08-26T16:21:40.055Z,54.10
2022-08-26T16:24:07.167Z,54.20
2022-08-26T16:26:35.687Z,54.20
2022-08-26T16:29:04.401Z,54.40
2022-08-26T16:31:31.445Z,54.50
2022-08-26T16:33:58.428Z,54.50
2022-08-26T16:36:25.328Z,54.60
2022-08-26T16:38:55.282Z,54.70
2022-08-26T16:41:23.135Z,54.80
2022-08-26T16:43:50.093Z,54.90
2022-08-26T16:46:17.065Z,55.10
2022-08-26T16:48:44.102Z,55.20
2022-08-26T16:51:16.231Z,55.30
2022-08-26T16:53:43.861Z,55.50
2022-08-26T16:56:14.645Z,55.70
2022-08-26T16:58:41.451Z,55.80
2022-08-26T17:01:08.361Z,56.00
2022-08-26T17:03:35.141Z,56.10
2022-08-26T17:06:02.946Z,56.10
2022-08-26T17:08:30.416Z,56.20
2022-08-26T17:10:58.858Z,56.30
2022-08-26T17:13:34.784Z,56.40
2022-08-26T17:16:04.257Z,56.50
2022-08-26T17:18:31.260Z,56.50
2022-08-26T17:21:00.889Z,56.40
2022-08-26T17:23:27.732Z,56.40
2022-08-26T17:25:54.502Z,56.40
2022-08-26T17:28:21.229Z,56.30
2022-08-26T17:30:48.030Z,56.40
2022-08-26T17:33:15.130Z,56.30
2022-08-26T17:35:45.426Z,56.20
2022-08-26T17:38:12.173Z,56.30
2022-08-26T17:40:39.235Z,56.20
2022-08-26T17:43:10.314Z,56.20
2022-08-26T17:45:40.433Z,56.30
2022-08-26T17:48:08.020Z,56.30
2022-08-26T17:50:35.327Z,56.40
2022-08-26T17:53:02.086Z,56.50
2022-08-26T17:55:29.186Z,56.60
2022-08-26T17:57:56.020Z,56.50
2022-08-26T18:00:26.445Z,56.50
2022-08-26T18:02:56.427Z,56.40
2022-08-26T18:05:23.241Z,56.40
2022-08-26T18:07:51.498Z,56.40
2022-08-26T18:10:19.374Z,56.50
2022-08-26T18:12:46.756Z,56.50
2022-08-26T18:15:14.429Z,56.50
2022-08-26T18:17:41.845Z,56.50
2022-08-26T18:20:09.677Z,56.40
2022-08-26T18:22:36.534Z,56.40
2022-08-26T18:25:05.056Z,56.50
2022-08-26T18:27:31.840Z,56.40
2022-08-26T18:29:59.132Z,56.60
2022-08-26T18:32:25.963Z,56.60
2022-08-26T18:34:53.300Z,56.70
2022-08-26T18:37:19.994Z,56.80
2022-08-26T18:39:47.380Z,56.80
2022-08-26T18:42:14.481Z,56.80
2022-08-26T18:44:41.559Z,57.00
2022-08-26T18:47:08.563Z,57.10
2022-08-26T18:49:35.301Z,57.10
2022-08-26T18:52:02.147Z,57.10
2022-08-26T18:54:29.954Z,57.10
2022-08-26T18:56:56.774Z,57.40
2022-08-26T18:59:30.233Z,57.40
2022-08-26T19:01:57.708Z,57.50
2022-08-26T19:04:24.658Z,57.60
2022-08-26T19:06:51.507Z,57.90
2022-08-26T19:09:18.854Z,58.30
2022-08-26T19:11:49.677Z,58.40
2022-08-26T19:14:17.077Z,58.40
2022-08-26T19:16:45.402Z,58.50
2022-08-26T19:19:12.599Z,58.70
2022-08-26T19:21:39.621Z,58.70
2022-08-26T19:24:15.240Z,58.90
2022-08-26T19:26:42.875Z,59.60
2022-08-26T19:29:09.715Z,59.60
2022-08-26T19:31:36.525Z,59.40
2022-08-26T19:34:05.256Z,59.60
2022-08-26T19:36:32.537Z,59.50
2022-08-26T19:39:00.252Z,59.60
2022-08-26T19:41:37.149Z,59.40
2022-08-26T19:44:09.425Z,59.40
2022-08-26T19:49:03.851Z,59.10
2022-08-26T19:51:32.017Z,58.90
2022-08-26T19:58:54.433Z,58.50
2022-08-26T20:01:21.785Z,58.60
2022-08-26T20:03:48.935Z,58.50
2022-08-26T20:06:16.458Z,58.50
2022-08-26T20:08:43.858Z,58.40
2022-08-26T20:11:16.192Z,58.40
2022-08-26T20:13:43.784Z,58.60
2022-08-26T20:16:12.067Z,58.60
2022-08-26T20:18:58.936Z,58.40
2022-08-26T20:21:29.396Z,58.30
2022-08-26T20:24:00.766Z,58.50
2022-08-26T20:26:28.421Z,58.60
2022-08-26T20:28:55.499Z,58.90
2022-08-26T20:31:22.545Z,59.00
2022-08-26T20:33:50.557Z,59.10
2022-08-26T20:36:18.115Z,59.20
2022-08-26T20:38:46.042Z,59.30
2022-08-26T20:41:13.223Z,59.20
2022-08-26T20:43:40.110Z,59.20
2022-08-26T20:46:08.319Z,59.40
2022-08-26T20:48:44.729Z,59.30
2022-08-26T20:51:12.729Z,59.20
2022-08-26T20:53:39.758Z,59.30
2022-08-26T20:56:07.460Z,59.40
2022-08-26T20:58:34.801Z,59.50
2022-08-26T21:01:07.297Z,59.60
2022-08-26T21:03:35.105Z,59.60
2022-08-26T21:06:03.362Z,59.70
2022-08-26T21:08:30.078Z,59.70
2022-08-26T21:11:00.335Z,59.70
2022-08-26T21:13:27.124Z,59.80
2022-08-26T21:15:57.472Z,59.80
2022-08-26T21:18:24.657Z,59.70
2022-08-26T21:20:54.303Z,59.80
2022-08-26T21:23:21.093Z,59.80
2022-08-26T21:25:48.430Z,59.90
2022-08-26T21:28:15.574Z,60.10
2022-08-26T21:30:42.515Z,60.20
2022-08-26T21:33:09.699Z,60.30
2022-08-26T21:35:36.456Z,60.30
2022-08-26T21:38:03.311Z,60.20
2022-08-26T21:40:30.438Z,60.30
2022-08-26T21:42:57.266Z,60.30
2022-08-26T21:45:24.187Z,60.40
2022-08-26T21:47:51.355Z,60.60
2022-08-26T21:50:18.152Z,60.80
2022-08-26T21:52:45.056Z,61.10
2022-08-26T21:55:11.922Z,61.20
2022-08-26T21:57:38.707Z,61.40
2022-08-26T22:00:08.627Z,61.60
2022-08-26T22:02:36.803Z,61.80
2022-08-26T22:05:03.973Z,61.90
2022-08-26T22:07:30.825Z,62.20
2022-08-26T22:09:57.944Z,62.10
2022-08-26T22:12:24.771Z,62.10
2022-08-26T22:14:51.507Z,62.20
2022-08-26T22:17:18.266Z,62.30
2022-08-26T22:19:46.420Z,62.30
2022-08-26T22:22:14.189Z,62.40
2022-08-26T22:24:43.521Z,62.40
2022-08-26T22:27:11.981Z,62.40
2022-08-26T22:29:39.005Z,62.50
2022-08-26T22:32:06.503Z,62.40
2022-08-26T22:34:33.518Z,62.50
2022-08-26T22:37:00.296Z,62.50
2022-08-26T22:39:27.023Z,62.40
2022-08-26T22:41:54.315Z,62.50
2022-08-26T22:44:22.424Z,62.50
2022-08-26T22:46:50.132Z,62.60
2022-08-26T22:49:16.992Z,62.80
2022-08-26T22:51:44.747Z,62.70
2022-08-26T22:54:11.520Z,62.70
2022-08-26T22:56:38.738Z,62.70
2022-08-26T22:59:06.742Z,62.80
2022-08-26T23:01:42.722Z,62.80
2022-08-26T23:04:13.233Z,62.90
2022-08-26T23:06:41.959Z,62.80
2022-08-26T23:09:10.197Z,62.90
2022-08-26T23:11:39.798Z,62.80
2022-08-26T23:14:09.501Z,62.80
2022-08-26T23:16:39.531Z,62.80
2022-08-26T23:19:06.534Z,62.90
2022-08-26T23:21:33.440Z,63.00
2022-08-26T23:24:00.975Z,63.10
2022-08-26T23:26:27.834Z,63.30
2022-08-26T23:28:54.997Z,63.60
2022-08-26T23:31:21.761Z,63.60
2022-08-26T23:34:06.977Z,63.60
2022-08-26T23:36:35.101Z,63.80
2022-08-26T23:39:03.253Z,64.00
2022-08-26T23:41:30.026Z,64.40
2022-08-26T23:43:59.564Z,64.70
2022-08-26T23:46:29.713Z,65.00
2022-08-26T23:48:56.436Z,65.20
2022-08-26T23:51:41.729Z,65.20
2022-08-26T23:54:08.478Z,65.50
2022-08-26T23:56:35.214Z,65.60
2022-08-26T23:59:01.911Z,65.60
